Time;durP1;ratioP1;P1;durP2;ratioP2;P2;SDS_P1;SDS_P2;PMS_P1;PMS_P2;Temp;Humidity;BMP_temperature;BMP_pressure;BME280_temperature;BME280_humidity;BME280_pressure;Samples;Min_cycle;Max_cycle;Signal;HPM_P1;HPM_P2
2021/04/23 00:00:52;;;;;;;14.38;5.00;;;;;;;5.33;69.90;101385.78;5055981;28;20144;-74
2021/04/23 00:03:23;;;;;;;10.98;5.35;;;;;;;5.30;70.14;101383.22;5054820;28;20053;-75
2021/04/23 00:05:52;;;;;;;12.77;4.47;;;;;;;5.21;70.65;101381.59;5064962;28;20048;-76
2021/04/23 00:08:19;;;;;;;18.48;5.10;;;;;;;5.15;70.94;101387.00;5075382;28;20438;-75
2021/04/23 00:10:47;;;;;;;11.93;4.55;;;;;;;5.12;70.44;101387.06;5075722;28;20106;-75
2021/04/23 00:13:19;;;;;;;15.45;5.72;;;;;;;5.09;70.66;101379.19;5075925;28;20121;-75
2021/04/23 00:15:49;;;;;;;16.20;5.03;;;;;;;5.08;70.83;101375.69;5059125;28;20422;-75
2021/04/23 00:18:15;;;;;;;11.18;4.78;;;;;;;5.10;70.72;101378.28;5075662;28;20050;-74
2021/04/23 00:20:41;;;;;;;14.15;5.22;;;;;;;5.08;70.62;101377.44;5075547;28;20048;-74
2021/04/23 00:23:09;;;;;;;17.73;4.93;;;;;;;5.11;70.61;101372.06;5057814;28;20052;-74
2021/04/23 00:25:36;;;;;;;18.90;5.40;;;;;;;5.09;70.49;101368.59;5076065;28;20048;-74
2021/04/23 00:28:07;;;;;;;14.93;4.90;;;;;;;5.12;70.78;101374.69;5074674;28;20052;-74
2021/04/23 00:30:37;;;;;;;17.13;5.40;;;;;;;5.09;70.86;101371.22;5074450;28;20056;-74
2021/04/23 00:33:05;;;;;;;16.45;5.05;;;;;;;5.03;71.21;101372.22;5075526;28;20056;-74
2021/04/23 00:35:35;;;;;;;19.35;5.90;;;;;;;4.94;71.39;101372.38;5074922;28;20052;-74
2021/04/23 00:38:07;;;;;;;24.42;7.45;;;;;;;4.79;71.79;101355.88;5074270;28;20121;-75
2021/04/23 00:40:40;;;;;;;15.50;4.82;;;;;;;4.78;72.04;101363.88;5074473;28;20094;-74
2021/04/23 00:43:06;;;;;;;16.27;5.00;;;;;;;4.83;71.97;101369.94;5075164;28;20060;-75
2021/04/23 00:45:34;;;;;;;14.50;4.82;;;;;;;4.74;72.58;101384.22;5074183;28;20135;-75
2021/04/23 00:48:03;;;;;;;13.52;5.20;;;;;;;4.67;72.63;101385.19;5073825;28;20049;-74
2021/04/23 00:50:38;;;;;;;14.20;5.85;;;;;;;4.72;72.45;101380.69;5075102;28;20430;-74
2021/04/23 00:53:05;;;;;;;13.05;4.50;;;;;;;4.67;72.45;101382.53;5074001;28;20056;-73
2021/04/23 00:55:36;;;;;;;16.48;4.82;;;;;;;4.55;73.02;101391.56;5073771;28;20040;-74
2021/04/23 00:58:10;;;;;;;17.50;4.93;;;;;;;4.42;73.45;101389.09;5074045;28;20052;-74
2021/04/23 01:00:36;;;;;;;15.32;4.40;;;;;;;4.35;73.57;101398.03;5075041;28;20048;-75
2021/04/23 01:03:02;;;;;;;9.75;4.50;;;;;;;4.31;73.73;101385.75;5074798;28;20063;-74
2021/04/23 01:05:34;;;;;;;14.40;4.93;;;;;;;4.27;73.56;101387.59;5070531;28;20393;-74
2021/04/23 01:08:01;;;;;;;11.55;5.28;;;;;;;4.30;73.96;101386.66;5058663;28;20381;-75
2021/04/23 01:10:28;;;;;;;14.40;4.55;;;;;;;4.26;73.98;101379.66;5059145;28;20090;-75
2021/04/23 01:12:56;;;;;;;13.77;4.95;;;;;;;4.17;74.49;101386.84;5058654;28;20080;-75
2021/04/23 01:15:23;;;;;;;12.25;5.40;;;;;;;4.11;74.75;101389.56;5057889;28;20048;-75
2021/04/23 01:17:49;;;;;;;13.02;4.97;;;;;;;4.10;74.73;101386.94;5057786;28;20049;-75
2021/04/23 01:20:17;;;;;;;16.55;5.57;;;;;;;4.05;75.03;101379.94;5057870;28;20048;-75
2021/04/23 01:22:43;;;;;;;16.58;5.05;;;;;;;4.07;74.31;101382.56;5057722;28;20342;-75
2021/04/23 01:25:11;;;;;;;17.58;5.63;;;;;;;3.98;74.67;101380.06;5058576;28;20049;-75
2021/04/23 01:27:37;;;;;;;16.55;5.18;;;;;;;3.90;74.78;101383.69;5058197;28;20056;-74
2021/04/23 01:30:08;;;;;;;16.50;4.80;;;;;;;3.89;75.41;101386.34;5058629;28;20048;-75
2021/04/23 01:32:34;;;;;;;14.57;4.90;;;;;;;3.85;75.10;101377.59;5058272;28;20430;-75
2021/04/23 01:35:01;;;;;;;19.73;5.60;;;;;;;3.78;75.11;101383.84;5058241;28;20053;-75
2021/04/23 01:37:28;;;;;;;14.77;4.93;;;;;;;3.72;75.81;101373.34;5056987;28;20107;-74
2021/04/23 01:39:56;;;;;;;12.57;5.07;;;;;;;3.75;75.79;101379.47;5058164;28;20057;-75
2021/04/23 01:42:23;;;;;;;19.27;5.82;;;;;;;3.62;76.01;101381.41;5056900;28;20059;-74
2021/04/23 01:44:49;;;;;;;12.60;5.20;;;;;;;3.53;76.31;101377.09;5057480;28;20075;-76
2021/04/23 01:47:16;;;;;;;13.20;5.28;;;;;;;3.39;75.82;101358.78;5058098;28;20056;-75
2021/04/23 01:49:42;;;;;;;12.27;5.20;;;;;;;3.57;76.08;101391.16;5056995;28;20064;-73
2021/04/23 01:52:14;;;;;;;15.70;5.25;;;;;;;3.55;76.26;101392.94;5058318;28;20052;-75
2021/04/23 01:54:42;;;;;;;13.05;5.82;;;;;;;3.51;76.31;101397.38;5057693;28;20389;-76
2021/04/23 01:57:09;;;;;;;15.27;5.95;;;;;;;3.50;76.44;101392.97;5056877;28;20056;-74
2021/04/23 01:59:37;;;;;;;11.38;5.03;;;;;;;3.43;76.84;101393.06;5057976;28;20057;-75
2021/04/23 02:02:04;;;;;;;13.77;5.30;;;;;;;3.43;76.67;101393.06;5058139;28;20052;-74
2021/04/23 02:04:31;;;;;;;20.15;6.22;;;;;;;3.36;76.57;101386.97;5057649;28;20084;-73
2021/04/23 02:06:58;;;;;;;16.67;6.63;;;;;;;3.35;76.94;101399.31;5076785;28;20048;-74
2021/04/23 02:09:25;;;;;;;20.60;5.70;;;;;;;3.35;76.99;101401.06;5076767;28;20105;-75
2021/04/23 02:11:52;;;;;;;11.88;5.50;;;;;;;3.08;77.43;101376.72;5078133;28;20048;-74
2021/04/23 02:14:20;;;;;;;11.27;5.22;;;;;;;3.33;77.06;101406.34;5077490;28;20086;-75
2021/04/23 02:16:47;;;;;;;16.80;5.05;;;;;;;3.23;77.10;101397.66;5076740;28;20052;-74
2021/04/23 02:19:15;;;;;;;18.83;6.90;;;;;;;3.25;77.19;101408.19;5077551;28;20430;-74
2021/04/23 02:21:43;;;;;;;14.57;5.70;;;;;;;3.23;77.24;101410.00;5077846;28;20044;-74
2021/04/23 02:24:10;;;;;;;19.70;6.03;;;;;;;3.08;77.92;101414.53;5076722;28;20396;-75
2021/04/23 02:26:37;;;;;;;16.80;5.38;;;;;;;3.09;77.63;101405.72;5077533;28;20052;-74
2021/04/23 02:29:11;;;;;;;20.63;6.30;;;;;;;3.14;77.47;101415.38;5077347;28;20385;-74
2021/04/23 02:31:39;;;;;;;12.52;5.68;;;;;;;3.03;78.06;101416.34;5078086;28;20052;-75
2021/04/23 02:34:11;;;;;;;27.65;7.38;;;;;;;2.93;77.66;101407.63;5077013;28;20369;-75
2021/04/23 02:36:37;;;;;;;21.92;6.85;;;;;;;2.88;78.20;101421.75;5077141;28;20052;-75
2021/04/23 02:39:07;;;;;;;17.45;6.13;;;;;;;2.87;78.13;101414.75;5075972;28;20347;-74
2021/04/23 02:41:35;;;;;;;23.02;6.95;;;;;;;2.83;78.48;101411.25;5077098;28;20396;-76
2021/04/23 02:44:02;;;;;;;18.20;5.55;;;;;;;2.86;78.30;101419.13;5077408;28;20063;-74
2021/04/23 02:46:29;;;;;;;15.63;5.75;;;;;;;2.90;78.23;101423.50;5077327;28;20056;-74
2021/04/23 02:48:55;;;;;;;12.25;6.15;;;;;;;2.87;78.08;101420.88;5077093;28;20048;-75
2021/04/23 02:51:27;;;;;;;15.10;5.97;;;;;;;2.83;78.32;101422.66;5077417;28;20056;-73
2021/04/23 02:53:54;;;;;;;11.57;5.40;;;;;;;2.78;78.82;101428.88;5077360;28;20326;-75
2021/04/23 02:56:23;;;;;;;16.00;5.75;;;;;;;2.78;78.77;101420.97;5077087;28;20101;-76
2021/04/23 02:58:50;;;;;;;12.02;5.40;;;;;;;2.75;78.64;101424.50;5077139;28;20119;-76
2021/04/23 03:01:20;;;;;;;15.88;6.40;;;;;;;2.75;78.87;101415.69;5077215;28;20048;-75
2021/04/23 03:03:51;;;;;;;23.33;6.57;;;;;;;2.73;78.97;101428.91;5076010;28;20056;-76
2021/04/23 03:06:18;;;;;;;18.10;6.20;;;;;;;2.69;78.95;101422.78;5063224;28;20456;-75
2021/04/23 03:08:44;;;;;;;18.77;6.30;;;;;;;2.73;78.74;101434.19;5056586;28;20427;-74
2021/04/23 03:11:14;;;;;;;16.42;6.10;;;;;;;2.68;78.81;101428.91;5039385;28;20157;-75
2021/04/23 03:13:45;;;;;;;15.45;6.03;;;;;;;2.66;79.18;101430.69;5055581;28;20056;-75
2021/04/23 03:16:12;;;;;;;19.85;6.43;;;;;;;2.58;79.44;101438.66;5056831;28;20099;-76
2021/04/23 03:18:41;;;;;;;14.98;6.88;;;;;;;2.58;79.39;101437.81;5056813;28;20056;-76
2021/04/23 03:21:09;;;;;;;26.05;6.63;;;;;;;2.52;79.61;101428.19;5056421;28;20057;-75
2021/04/23 03:23:36;;;;;;;18.63;7.10;;;;;;;2.47;79.61;101427.34;5056495;28;20060;-75
2021/04/23 03:26:06;;;;;;;20.48;6.75;;;;;;;2.54;79.60;101441.31;5055233;28;20071;-76
2021/04/23 03:28:32;;;;;;;20.95;7.03;;;;;;;2.41;79.94;101422.09;5056152;28;20411;-75
2021/04/23 03:30:59;;;;;;;11.85;6.15;;;;;;;2.43;79.88;101434.38;5056379;28;20106;-75
2021/04/23 03:33:26;;;;;;;20.85;7.13;;;;;;;2.43;80.08;101430.88;5056069;28;20083;-75
2021/04/23 03:35:56;;;;;;;15.88;6.80;;;;;;;2.49;79.69;101441.38;5055610;28;20172;-76
2021/04/23 03:38:25;;;;;;;16.27;6.30;;;;;;;2.42;79.73;101431.75;5055985;28;20110;-77
2021/04/23 03:40:54;;;;;;;18.25;7.00;;;;;;;2.26;79.56;101408.16;5055045;28;20090;-76
2021/04/23 03:43:22;;;;;;;13.82;6.53;;;;;;;2.21;80.51;101431.00;5056080;28;20056;-74
2021/04/23 03:45:49;;;;;;;20.25;8.15;;;;;;;2.24;80.26;101430.97;5055079;28;20052;-74
2021/04/23 03:48:15;;;;;;;24.58;7.47;;;;;;;2.13;80.14;101412.59;5054829;28;20056;-74
2021/04/23 03:50:43;;;;;;;15.65;7.55;;;;;;;2.27;79.96;101436.25;5055617;28;20053;-76
2021/04/23 03:53:12;;;;;;;18.23;8.45;;;;;;;2.34;79.97;101449.38;5055692;28;20057;-75
2021/04/23 03:55:43;;;;;;;18.02;7.50;;;;;;;2.25;79.57;101434.50;5055717;28;20060;-75
2021/04/23 03:58:11;;;;;;;21.67;8.15;;;;;;;2.18;80.25;101438.91;5056006;28;20060;-75
2021/04/23 04:00:50;;;;;;;18.42;7.00;;;;;;;2.23;80.16;101447.66;5054485;28;20438;-75
2021/04/23 04:03:19;;;;;;;12.18;6.25;;;;;;;2.19;80.03;101443.31;5054876;28;20139;-75
2021/04/23 04:05:45;;;;;;;15.70;7.20;;;;;;;2.18;80.09;101452.06;5060125;28;20052;-75
2021/04/23 04:08:12;;;;;;;20.77;6.75;;;;;;;2.15;80.20;101452.09;5055704;28;20052;-75
2021/04/23 04:10:39;;;;;;;17.23;7.32;;;;;;;2.04;80.40;101449.53;5055624;28;20053;-75
2021/04/23 04:13:06;;;;;;;17.95;7.00;;;;;;;1.90;80.66;101417.97;5055516;28;20400;-75
2021/04/23 04:15:34;;;;;;;19.60;7.28;;;;;;;2.01;80.82;101444.25;5055470;28;20052;-74
2021/04/23 04:18:00;;;;;;;19.52;6.80;;;;;;;2.06;80.52;101453.03;5055539;28;20132;-76
2021/04/23 04:20:29;;;;;;;19.50;8.00;;;;;;;2.14;80.65;101455.63;5056075;28;20347;-75
2021/04/23 04:22:56;;;;;;;17.77;7.50;;;;;;;2.01;80.96;101455.69;5061769;28;20051;-74
2021/04/23 04:25:34;;;;;;;19.42;7.53;;;;;;;2.00;80.01;101451.31;5064520;28;20346;-74
2021/04/23 04:28:02;;;;;;;22.20;8.93;;;;;;;1.96;81.12;101448.69;5065359;28;20139;-73
2021/04/23 04:30:29;;;;;;;15.38;7.30;;;;;;;1.92;80.73;101471.53;5064239;28;20353;-75
2021/04/23 04:32:56;;;;;;;19.80;7.63;;;;;;;2.00;80.98;101472.38;5054101;28;20053;-74
2021/04/23 04:35:27;;;;;;;20.25;7.63;;;;;;;1.99;80.88;101473.25;5054943;28;20083;-75
2021/04/23 04:37:55;;;;;;;17.88;8.13;;;;;;;1.95;81.01;101478.53;5063770;28;20091;-74
2021/04/23 04:40:22;;;;;;;18.25;7.30;;;;;;;1.94;80.65;101471.50;5054668;28;20393;-76
2021/04/23 04:42:48;;;;;;;16.38;7.57;;;;;;;1.98;80.37;101476.78;5055158;28;20102;-75
2021/04/23 04:45:17;;;;;;;19.05;8.02;;;;;;;1.83;81.09;101479.44;5037708;28;20048;-74
2021/04/23 04:47:44;;;;;;;20.73;7.95;;;;;;;1.78;80.62;101475.97;5055122;28;20115;-74
2021/04/23 04:50:15;;;;;;;17.45;7.50;;;;;;;1.83;81.35;101487.34;5056504;28;20048;-75
2021/04/23 04:52:41;;;;;;;;;;;;;;;1.89;81.23;101487.31;5075535;28;20052;-76
2021/04/23 04:55:14;;;;;;;25.20;8.15;;;;;;;1.93;81.09;101496.97;5063122;28;19921;-74
2021/04/23 04:57:42;;;;;;;22.02;8.10;;;;;;;1.92;81.07;101491.72;5071179;28;20442;-72
2021/04/23 05:00:12;;;;;;;18.25;7.65;;;;;;;1.95;80.83;101487.31;5074672;28;20057;-72
2021/04/23 05:02:39;;;;;;;23.42;8.57;;;;;;;1.92;81.21;101482.06;5071615;28;20099;-73
2021/04/23 05:05:06;;;;;;;24.67;9.27;;;;;;;2.05;80.98;101503.09;5065055;28;20045;-75
2021/04/23 05:07:33;;;;;;;18.98;8.73;;;;;;;2.05;80.85;101508.34;5053253;28;20045;-76
2021/04/23 05:10:00;;;;;;;17.88;7.72;;;;;;;2.03;80.40;101501.31;5058924;28;20056;-75
2021/04/23 05:12:26;;;;;;;23.70;9.18;;;;;;;2.18;80.88;101525.84;5057206;28;20053;-76
2021/04/23 05:14:52;;;;;;;21.83;8.77;;;;;;;2.18;81.16;101520.56;5055160;28;20065;-74
2021/04/23 05:17:18;;;;;;;24.60;9.05;;;;;;;2.20;81.20;101523.19;5054939;28;20152;-75
2021/04/23 05:19:45;;;;;;;23.80;8.65;;;;;;;2.26;81.20;101531.97;5071787;28;20099;-77
2021/04/23 05:22:11;;;;;;;17.05;8.63;;;;;;;2.24;81.45;101531.06;5075079;28;20052;-75
2021/04/23 05:24:37;;;;;;;21.38;8.98;;;;;;;2.36;80.86;101531.91;5076252;28;20040;-75
2021/04/23 05:27:03;;;;;;;19.83;8.73;;;;;;;2.44;81.06;101532.75;5070802;28;20088;-74
2021/04/23 05:29:29;;;;;;;21.30;8.38;;;;;;;2.38;81.16;101517.84;5064818;28;20430;-76
2021/04/23 05:31:56;;;;;;;21.55;9.23;;;;;;;2.54;81.50;101533.56;5077375;28;20368;-75
2021/04/23 05:34:22;;;;;;;20.15;9.32;;;;;;;2.61;81.03;101535.28;5055500;28;20144;-73
2021/04/23 05:36:49;;;;;;;17.77;8.73;;;;;;;2.62;81.02;101529.13;5054848;28;20439;-75
2021/04/23 05:39:15;;;;;;;20.05;8.82;;;;;;;2.79;80.30;101539.56;5053981;28;20095;-72
2021/04/23 05:41:41;;;;;;;18.67;8.70;;;;;;;2.80;80.22;101535.19;5055925;28;20323;-69
2021/04/23 05:44:08;;;;;;;22.63;9.77;;;;;;;2.83;79.94;101525.50;5058953;28;20053;-76
2021/04/23 05:46:35;;;;;;;21.60;10.57;;;;;;;3.01;79.73;101536.81;5061743;28;20049;-74
2021/04/23 05:49:03;;;;;;;17.95;9.82;;;;;;;3.09;79.86;101540.28;5053862;28;20055;-75
2021/04/23 05:51:29;;;;;;;23.00;10.10;;;;;;;3.17;79.34;101539.31;5056399;28;20099;-74
2021/04/23 05:53:56;;;;;;;23.27;9.70;;;;;;;3.16;79.43;101533.16;5059691;28;20087;-78
2021/04/23 05:56:22;;;;;;;21.20;10.32;;;;;;;3.35;79.08;101548.84;5059170;28;20049;-77
2021/04/23 05:58:49;;;;;;;22.70;9.55;;;;;;;3.41;78.58;101532.97;5071096;28;20060;-78
2021/04/23 06:01:17;;;;;;;27.67;10.65;;;;;;;3.47;78.23;101546.13;5077851;28;20080;-78
2021/04/23 06:03:43;;;;;;;22.13;9.48;;;;;;;3.54;78.21;101544.28;5077084;28;20129;-75
2021/04/23 06:06:09;;;;;;;21.70;9.95;;;;;;;3.59;78.18;101547.75;5064910;28;20049;-79
2021/04/23 06:08:36;;;;;;;21.60;10.10;;;;;;;3.65;77.73;101537.13;5057887;28;20053;-77
2021/04/23 06:11:02;;;;;;;21.30;9.35;;;;;;;3.76;77.87;101552.00;5058017;28;20139;-74
2021/04/23 06:13:29;;;;;;;23.90;9.55;;;;;;;3.77;76.85;101538.78;5056812;28;20057;-74
2021/04/23 06:15:55;;;;;;;18.58;9.35;;;;;;;3.85;77.09;101553.66;5064879;28;20052;-74
2021/04/23 06:18:21;;;;;;;25.17;9.88;;;;;;;3.93;77.11;101555.34;5077436;28;20056;-76
2021/04/23 06:20:47;;;;;;;23.38;9.68;;;;;;;3.98;76.79;101551.78;5077309;28;20544;-75
2021/04/23 06:23:16;;;;;;;23.58;10.38;;;;;;;4.03;76.68;101555.25;5076540;28;20460;-75
2021/04/23 06:25:42;;;;;;;23.58;10.60;;;;;;;4.04;76.54;101539.38;5076781;28;20122;-74
2021/04/23 06:28:09;;;;;;;24.42;10.55;;;;;;;4.20;76.17;101549.78;5076396;28;20060;-74
2021/04/23 06:30:37;;;;;;;29.85;10.88;;;;;;;4.19;75.92;101554.16;5076537;28;20049;-74
2021/04/23 06:33:13;;;;;;;23.80;10.65;;;;;;;4.25;75.86;101552.34;5079292;28;20063;-74
2021/04/23 06:35:40;;;;;;;29.92;11.07;;;;;;;4.25;75.47;101563.78;5079176;28;20061;-76
2021/04/23 06:38:06;;;;;;;22.92;10.88;;;;;;;4.29;75.31;101568.16;5059550;28;20097;-77
2021/04/23 06:40:32;;;;;;;27.55;11.10;;;;;;;4.37;75.39;101572.47;5077514;28;20053;-74
2021/04/23 06:42:59;;;;;;;26.88;10.85;;;;;;;4.42;75.21;101562.72;5077304;28;20059;-72
2021/04/23 06:45:25;;;;;;;22.75;10.80;;;;;;;4.53;74.97;101568.72;5071213;28;20041;-76
2021/04/23 06:47:51;;;;;;;26.25;10.50;;;;;;;4.60;74.57;101564.25;5066704;28;20057;-74
2021/04/23 06:50:21;;;;;;;27.20;11.80;;;;;;;4.59;74.01;101573.06;5058698;28;20059;-76
2021/04/23 06:52:48;;;;;;;28.98;11.52;;;;;;;4.61;74.10;101571.28;5059382;28;20048;-75
2021/04/23 06:55:15;;;;;;;34.38;13.05;;;;;;;4.63;74.35;101572.13;5058750;28;20370;-73
2021/04/23 06:57:42;;;;;;;18.67;10.45;;;;;;;4.68;73.25;101575.59;5056137;28;20107;-76
2021/04/23 07:00:14;;;;;;;23.35;10.50;;;;;;;4.76;74.15;101581.63;5056080;28;20049;-76
2021/04/23 07:02:41;;;;;;;21.20;10.77;;;;;;;4.82;73.71;101580.69;5054508;28;20057;-75
2021/04/23 07:05:10;;;;;;;25.33;10.48;;;;;;;4.86;72.63;101582.38;5058820;28;20086;-77
2021/04/23 07:07:36;;;;;;;28.35;11.00;;;;;;;4.98;72.63;101578.72;5058021;28;20060;-77
2021/04/23 07:10:05;;;;;;;26.88;11.25;;;;;;;5.02;72.18;101583.03;5075444;28;20079;-75
2021/04/23 07:12:31;;;;;;;19.27;9.40;;;;;;;5.08;71.89;101581.22;5075810;28;20076;-75
2021/04/23 07:14:58;;;;;;;23.23;9.50;;;;;;;5.10;71.82;101592.63;5076065;28;20098;-74
2021/04/23 07:17:24;;;;;;;29.33;9.07;;;;;;;5.15;71.49;101594.34;5076032;28;20048;-74
2021/04/23 07:19:50;;;;;;;22.17;9.18;;;;;;;5.19;71.16;101584.56;5092580;28;20143;-76
2021/04/23 07:22:17;;;;;;;21.52;10.95;;;;;;;5.35;70.35;101581.69;5076655;28;20049;-75
2021/04/23 07:24:44;;;;;;;19.77;9.00;;;;;;;5.43;70.34;101587.72;5076805;28;20056;-74
2021/04/23 07:27:12;;;;;;;21.35;9.98;;;;;;;5.49;70.30;101579.66;5075320;28;20075;-74
2021/04/23 07:29:44;;;;;;;18.48;10.07;;;;;;;5.50;70.23;101577.91;5076383;28;20060;-73
2021/04/23 07:32:10;;;;;;;31.65;11.02;;;;;;;5.59;69.66;101588.34;5075192;28;20143;-76
2021/04/23 07:34:37;;;;;;;25.35;10.38;;;;;;;5.63;69.46;101590.03;5041941;28;20506;-75
2021/04/23 07:37:04;;;;;;;26.23;10.88;;;;;;;5.72;69.77;101591.63;5076531;28;20052;-76
2021/04/23 07:39:30;;;;;;;21.15;9.60;;;;;;;5.78;68.79;101593.31;5058539;28;20354;-75
2021/04/23 07:41:57;;;;;;;22.58;9.15;;;;;;;5.84;68.69;101586.13;5076507;28;20138;-76
2021/04/23 07:44:25;;;;;;;22.80;9.52;;;;;;;5.82;68.06;101589.69;5075206;28;20094;-76
2021/04/23 07:46:54;;;;;;;23.83;10.50;;;;;;;5.90;68.52;101585.16;5076474;28;20064;-76
2021/04/23 07:49:21;;;;;;;22.55;10.05;;;;;;;5.95;68.86;101585.91;5075980;28;20149;-75
2021/04/23 07:51:48;;;;;;;31.08;11.73;;;;;;;6.07;67.75;101586.63;5076014;28;20088;-75
2021/04/23 07:54:15;;;;;;;24.38;11.85;;;;;;;6.06;67.88;101584.88;5075067;28;20059;-75
2021/04/23 07:56:41;;;;;;;22.83;11.38;;;;;;;6.01;66.92;101581.41;5076114;28;20048;-73
2021/04/23 07:59:08;;;;;;;28.90;12.13;;;;;;;6.12;67.15;101582.13;5075489;28;20055;-76
2021/04/23 08:01:34;;;;;;;26.10;12.02;;;;;;;6.20;66.75;101580.19;5075606;28;20056;-76
2021/04/23 08:04:00;;;;;;;23.65;11.55;;;;;;;6.21;66.79;101578.41;5075804;28;20049;-76
2021/04/23 08:06:27;;;;;;;26.88;11.52;;;;;;;6.29;68.13;101584.44;5061140;28;20056;-74
2021/04/23 08:08:53;;;;;;;27.08;12.38;;;;;;;6.37;67.27;101581.59;5055394;28;20053;-76
2021/04/23 08:11:19;;;;;;;29.50;11.68;;;;;;;6.50;66.78;101580.44;5055533;28;20469;-74
2021/04/23 08:13:45;;;;;;;25.58;11.80;;;;;;;6.56;65.73;101584.78;5054924;28;20049;-76
2021/04/23 08:16:12;;;;;;;21.30;11.15;;;;;;;6.60;65.22;101586.44;5055365;28;20052;-76
2021/04/23 08:18:39;;;;;;;27.58;10.48;;;;;;;6.63;64.78;101585.50;5054695;28;20075;-76
2021/04/23 08:21:07;;;;;;;20.55;11.20;;;;;;;6.62;64.02;101589.94;5055418;28;20135;-76
2021/04/23 08:23:35;;;;;;;25.92;10.18;;;;;;;6.68;64.52;101585.41;5055164;28;20124;-75
2021/04/23 08:26:03;;;;;;;23.23;10.90;;;;;;;6.68;64.24;101565.06;5055191;28;20450;-76
2021/04/23 08:28:32;;;;;;;29.77;10.73;;;;;;;6.87;64.57;101581.44;5055162;28;20052;-76
2021/04/23 08:30:58;;;;;;;22.48;11.02;;;;;;;6.87;64.59;101581.44;5055432;28;20060;-76
2021/04/23 08:33:26;;;;;;;26.25;11.40;;;;;;;6.98;63.77;101572.38;5055431;28;20044;-75
2021/04/23 08:35:52;;;;;;;23.02;12.45;;;;;;;7.08;63.21;101573.88;5053735;28;20135;-77
2021/04/23 08:38:26;;;;;;;20.98;10.35;;;;;;;7.20;63.24;101573.59;5055394;28;20049;-75
2021/04/23 08:40:54;;;;;;;19.23;9.60;;;;;;;7.28;62.39;101572.53;5054171;28;20064;-75
2021/04/23 08:43:21;;;;;;;21.25;9.80;;;;;;;7.30;61.87;101568.06;5055084;28;20332;-74
2021/04/23 08:45:48;;;;;;;18.77;9.68;;;;;;;7.17;61.73;101559.50;5054877;28;20045;-76
2021/04/23 08:48:15;;;;;;;21.52;10.45;;;;;;;7.40;61.96;101574.88;5053872;28;20484;-76
2021/04/23 08:50:42;;;;;;;27.75;9.95;;;;;;;7.47;61.93;101570.31;5054835;28;20423;-78
2021/04/23 08:53:09;;;;;;;22.40;9.20;;;;;;;7.63;61.93;101581.38;5055007;28;20362;-74
2021/04/23 08:55:35;;;;;;;17.23;8.80;;;;;;;7.67;61.02;101583.06;5055069;28;20068;-78
2021/04/23 08:58:12;;;;;;;20.35;9.52;;;;;;;7.51;60.38;101555.16;5055341;28;20072;-77
2021/04/23 09:00:39;;;;;;;19.33;8.30;;;;;;;7.74;59.92;101570.50;5054924;28;20080;-75
2021/04/23 09:03:09;;;;;;;18.17;8.45;;;;;;;7.82;59.72;101570.28;5053926;28;20052;-75
2021/04/23 09:05:36;;;;;;;19.02;8.07;;;;;;;7.87;58.18;101549.78;5045219;28;20311;-76
2021/04/23 09:08:05;;;;;;;22.02;9.27;;;;;;;8.19;56.96;101566.63;5074914;28;20438;-75
2021/04/23 09:10:33;;;;;;;17.98;7.93;;;;;;;8.14;57.69;101566.75;5074850;28;20056;-76
2021/04/23 09:13:15;;;;;;;20.90;8.65;;;;;;;8.02;57.59;101569.75;5073744;28;20130;-76
2021/04/23 09:15:44;;;;;;;23.83;8.38;;;;;;;8.12;58.26;101563.25;5074672;28;20128;-74
2021/04/23 09:18:12;;;;;;;21.23;8.27;;;;;;;8.20;56.85;101560.38;5074832;28;20077;-75
2021/04/23 09:20:41;;;;;;;20.05;8.35;;;;;;;8.30;57.64;101566.31;5074596;28;20102;-74
2021/04/23 09:23:20;;;;;;;22.75;8.98;;;;;;;8.35;55.98;101563.50;5075027;28;20052;-75
2021/04/23 09:25:53;;;;;;;18.33;8.00;;;;;;;8.51;56.94;101562.16;5076104;28;20048;-77
2021/04/23 09:28:43;;;;;;;29.73;9.02;;;;;;;8.63;56.65;101552.97;5078906;28;20390;-76
2021/04/23 09:31:29;;;;;;;21.15;9.18;;;;;;;8.77;55.63;101563.16;5078402;28;20049;-78
2021/04/23 09:33:59;;;;;;;18.55;8.23;;;;;;;8.83;54.76;101560.31;5078605;28;20063;-75
2021/04/23 09:36:39;;;;;;;24.00;9.05;;;;;;;8.84;53.78;101561.19;5078049;28;20349;-75
2021/04/23 09:39:24;;;;;;;19.70;8.68;;;;;;;8.83;53.83;101554.13;5078321;28;20335;-74
2021/04/23 09:41:56;;;;;;;19.17;7.55;;;;;;;8.87;54.42;101560.25;5077246;28;20102;-75
2021/04/23 09:44:39;;;;;;;18.50;7.57;;;;;;;9.05;54.02;101558.78;5078556;28;20052;-76
2021/04/23 09:47:11;;;;;;;20.73;7.72;;;;;;;9.14;53.54;101546.97;5078497;28;20056;-75
2021/04/23 09:49:38;;;;;;;18.08;7.50;;;;;;;9.21;53.39;101548.50;5078169;28;20413;-74
2021/04/23 09:52:07;;;;;;;13.52;7.85;;;;;;;9.36;52.75;101552.44;5077989;28;20056;-75
2021/04/23 09:54:34;;;;;;;21.20;7.65;;;;;;;9.30;52.62;101553.50;5078360;28;20079;-75
2021/04/23 09:57:02;;;;;;;14.13;7.13;;;;;;;9.50;53.20;101552.81;5078058;28;20048;-76
2021/04/23 09:59:30;;;;;;;14.00;7.13;;;;;;;9.72;52.60;101556.56;5077965;28;20131;-74
2021/04/23 10:02:01;;;;;;;21.65;8.00;;;;;;;9.75;51.45;101553.81;5078277;28;20056;-76
2021/04/23 10:04:37;;;;;;;14.90;7.32;;;;;;;9.67;51.89;101553.19;5077891;28;20135;-76
2021/04/23 10:07:38;;;;;;;17.20;6.70;;;;;;;9.84;49.71;101547.25;5059379;28;20343;-77
2021/04/23 10:10:12;;;;;;;15.77;7.47;;;;;;;9.92;50.22;101546.06;5002281;28;20459;-76
2021/04/23 10:13:08;;;;;;;14.43;6.78;;;;;;;9.96;49.16;101544.16;5054200;28;20449;-76
2021/04/23 10:15:37;;;;;;;24.40;8.38;;;;;;;9.90;49.59;101537.25;5059060;28;20052;-74
2021/04/23 10:18:10;;;;;;;20.45;7.75;;;;;;;9.97;49.04;101531.69;5060835;28;20053;-76
2021/04/23 10:20:40;;;;;;;13.40;6.20;;;;;;;10.17;50.21;101525.59;5060075;28;20426;-76
2021/04/23 10:23:10;;;;;;;12.57;6.70;;;;;;;10.46;48.76;101537.00;5057588;28;20452;-76
2021/04/23 10:25:39;;;;;;;16.02;6.15;;;;;;;10.70;48.82;101532.53;5056649;28;20049;-77
2021/04/23 10:28:09;;;;;;;11.82;5.50;;;;;;;10.59;48.50;101524.06;5057740;28;20053;-75
2021/04/23 10:30:39;;;;;;;21.77;7.43;;;;;;;10.43;48.35;101526.44;5056547;28;20052;-74
2021/04/23 10:33:11;;;;;;;16.67;6.43;;;;;;;10.66;49.20;101530.91;5057453;28;20067;-75
2021/04/23 10:35:39;;;;;;;13.88;7.55;;;;;;;10.85;48.88;101532.84;5056216;28;20056;-75
2021/04/23 10:38:09;;;;;;;16.67;6.78;;;;;;;10.89;47.61;101537.13;5056351;28;20446;-75
2021/04/23 10:40:38;;;;;;;9.73;6.25;;;;;;;11.04;48.24;101524.06;5057130;28;20069;-74
2021/04/23 10:43:12;;;;;;;16.08;7.30;;;;;;;11.30;48.23;101536.34;5057364;28;20048;-75
2021/04/23 10:45:41;;;;;;;13.27;7.28;;;;;;;11.39;47.61;101527.94;5056929;28;20060;-77
2021/04/23 10:48:32;;;;;;;14.00;6.50;;;;;;;11.44;46.92;101526.88;5055915;28;20045;-75
2021/04/23 10:51:20;;;;;;;16.02;5.95;;;;;;;11.60;47.24;101527.94;5057171;28;20060;-74
2021/04/23 10:53:49;;;;;;;17.77;6.60;;;;;;;11.64;46.35;101531.34;5057002;28;20457;-74
2021/04/23 10:56:30;;;;;;;13.13;6.55;;;;;;;11.78;46.97;101520.91;5056580;28;20434;-75
2021/04/23 10:58:59;;;;;;;17.05;6.43;;;;;;;11.99;45.85;101523.56;5057199;28;20060;-76
2021/04/23 11:01:33;;;;;;;14.05;7.20;;;;;;;11.77;44.76;101519.19;5056836;28;20103;-76
2021/04/23 11:04:08;;;;;;;16.33;6.40;;;;;;;11.98;45.30;101516.50;5057068;28;20053;-75
2021/04/23 11:06:40;;;;;;;14.80;6.20;;;;;;;12.22;44.75;101519.03;5055738;28;20087;-74
2021/04/23 11:09:13;;;;;;;13.38;5.90;;;;;;;12.44;44.04;101510.00;5056754;28;20351;-75
2021/04/23 11:11:42;;;;;;;15.60;6.32;;;;;;;12.58;43.31;101502.16;5056529;28;20053;-76
2021/04/23 11:14:23;;;;;;;21.92;7.10;;;;;;;12.87;43.67;101509.72;5056633;28;20069;-75
2021/04/23 11:16:51;;;;;;;11.30;5.90;;;;;;;12.99;43.21;101509.13;5056934;28;20056;-74
2021/04/23 11:19:18;;;;;;;9.45;5.32;;;;;;;12.81;41.85;101513.56;5056355;28;20114;-73
2021/04/23 11:22:02;;;;;;;12.00;6.20;;;;;;;12.65;42.05;101504.53;5056556;28;20053;-75
2021/04/23 11:24:28;;;;;;;13.02;5.30;;;;;;;12.60;41.52;101508.31;5056354;28;20053;-73
2021/04/23 11:29:24;;;;;;;12.40;4.50;;;;;;;13.01;41.25;101506.34;5075158;28;20052;-74
2021/04/23 11:32:22;;;;;;;11.68;4.93;;;;;;;13.17;40.41;101510.03;5076055;28;20052;-76
2021/04/23 11:34:54;;;;;;;12.95;4.88;;;;;;;13.51;39.69;101509.28;5074896;28;20452;-75